createdAt,value
2016-12-27T00:00:01.282Z,1022.64
2016-12-27T00:00:41.862Z,1022.61
2016-12-27T00:01:22.452Z,1022.61
2016-12-27T00:02:03.031Z,1022.62
2016-12-27T00:02:43.614Z,1022.58
2016-12-27T00:03:24.201Z,1022.57
2016-12-27T00:04:04.796Z,1022.56
2016-12-27T00:04:45.381Z,1022.53
2016-12-27T00:05:25.972Z,1022.53
2016-12-27T00:06:06.573Z,1022.52
2016-12-27T00:06:47.184Z,1022.51
2016-12-27T00:07:27.790Z,1022.56
2016-12-27T00:08:08.383Z,1022.52
2016-12-27T00:08:48.979Z,1022.53
2016-12-27T00:09:29.603Z,1022.52
2016-12-27T00:10:10.197Z,1022.54
2016-12-27T00:10:50.782Z,1022.54
2016-12-27T00:11:31.365Z,1022.52
2016-12-27T00:12:11.941Z,1022.58
2016-12-27T00:12:52.528Z,1022.54
2016-12-27T00:13:33.128Z,1022.54
2016-12-27T00:14:13.729Z,1022.56
2016-12-27T00:14:54.303Z,1022.56
2016-12-27T00:15:34.894Z,1022.52
2016-12-27T00:16:15.470Z,1022.52
2016-12-27T00:16:56.063Z,1022.51
2016-12-27T00:17:36.648Z,1022.54
2016-12-27T00:18:17.258Z,1022.47
2016-12-27T00:18:57.847Z,1022.48
2016-12-27T00:19:38.423Z,1022.49
2016-12-27T00:20:19.011Z,1022.46
2016-12-27T00:20:59.611Z,1022.5
2016-12-27T00:21:40.216Z,1022.49
2016-12-27T00:22:20.815Z,1022.48
2016-12-27T00:23:01.425Z,1022.46
2016-12-27T00:23:42.025Z,1022.48
2016-12-27T00:24:22.620Z,1022.47
2016-12-27T00:25:03.225Z,1022.42
2016-12-27T00:25:43.839Z,1022.44
2016-12-27T00:26:24.430Z,1022.41
2016-12-27T00:27:05.023Z,1022.45
2016-12-27T00:27:45.629Z,1022.46
2016-12-27T00:28:26.196Z,1022.43
2016-12-27T00:29:06.788Z,1022.41
2016-12-27T00:29:47.403Z,1022.39
2016-12-27T00:30:27.992Z,1022.4
2016-12-27T00:31:08.576Z,1022.39
2016-12-27T00:31:49.159Z,1022.41
2016-12-27T00:32:29.748Z,1022.39
2016-12-27T00:33:10.334Z,1022.4
2016-12-27T00:33:50.908Z,1022.39
2016-12-27T00:34:31.501Z,1022.37
2016-12-27T00:35:12.101Z,1022.34
2016-12-27T00:35:52.702Z,1022.33
2016-12-27T00:36:33.297Z,1022.33
2016-12-27T00:37:13.892Z,1022.34
2016-12-27T00:37:54.477Z,1022.34
2016-12-27T00:38:35.068Z,1022.33
2016-12-27T00:39:15.661Z,1022.33
2016-12-27T00:39:56.262Z,1022.32
2016-12-27T00:40:36.855Z,1022.29
2016-12-27T00:41:17.449Z,1022.33
2016-12-27T00:41:58.028Z,1022.37
2016-12-27T00:42:38.618Z,1022.36
2016-12-27T00:43:19.213Z,1022.36
2016-12-27T00:43:59.822Z,1022.35
2016-12-27T00:44:40.381Z,1022.36
2016-12-27T00:45:20.998Z,1022.37
2016-12-27T00:46:01.580Z,1022.37
2016-12-27T00:46:42.183Z,1022.36
2016-12-27T00:47:22.811Z,1022.36
2016-12-27T00:48:03.395Z,1022.4
2016-12-27T00:48:43.987Z,1022.39
2016-12-27T00:49:24.586Z,1022.37
2016-12-27T00:50:05.165Z,1022.4
2016-12-27T00:50:45.748Z,1022.39
2016-12-27T00:51:26.346Z,1022.38
2016-12-27T00:52:06.938Z,1022.4
2016-12-27T00:52:47.517Z,1022.4
2016-12-27T00:53:28.115Z,1022.42
2016-12-27T00:54:08.700Z,1022.43
2016-12-27T00:54:49.301Z,1022.42
2016-12-27T00:55:29.907Z,1022.4
2016-12-27T00:56:10.507Z,1022.38
2016-12-27T00:56:51.116Z,1022.37
2016-12-27T00:57:31.710Z,1022.38
2016-12-27T00:58:12.293Z,1022.4
2016-12-27T00:58:52.871Z,1022.39
2016-12-27T00:59:33.458Z,1022.39
2016-12-27T01:00:14.040Z,1022.4
2016-12-27T01:00:54.635Z,1022.39
2016-12-27T01:01:35.223Z,1022.42
2016-12-27T01:02:15.803Z,1022.41
2016-12-27T01:02:56.389Z,1022.43
2016-12-27T01:03:36.977Z,1022.42
2016-12-27T01:04:17.576Z,1022.38
2016-12-27T01:04:58.162Z,1022.4
2016-12-27T01:05:38.766Z,1022.39
2016-12-27T01:06:19.350Z,1022.39
2016-12-27T01:06:59.934Z,1022.39
2016-12-27T01:07:40.521Z,1022.38
2016-12-27T01:08:21.104Z,1022.4
2016-12-27T01:09:01.695Z,1022.39
2016-12-27T01:09:42.276Z,1022.35
2016-12-27T01:10:22.868Z,1022.38
2016-12-27T01:11:03.458Z,1022.36
2016-12-27T01:11:44.047Z,1022.38
2016-12-27T01:12:24.641Z,1022.37
2016-12-27T01:13:05.222Z,1022.38
2016-12-27T01:13:45.800Z,1022.39
2016-12-27T01:14:26.389Z,1022.36
2016-12-27T01:15:06.969Z,1022.4
2016-12-27T01:15:47.563Z,1022.37
2016-12-27T01:16:28.154Z,1022.38
2016-12-27T01:17:08.739Z,1022.38
2016-12-27T01:17:49.318Z,1022.38
2016-12-27T01:18:29.915Z,1022.4
2016-12-27T01:19:10.519Z,1022.43
2016-12-27T01:19:51.101Z,1022.42
2016-12-27T01:20:31.713Z,1022.46
2016-12-27T01:21:12.321Z,1022.47
2016-12-27T01:21:52.903Z,1022.43
2016-12-27T01:22:33.483Z,1022.44
2016-12-27T01:23:14.080Z,1022.44
2016-12-27T01:23:54.679Z,1022.42
2016-12-27T01:24:35.262Z,1022.41
2016-12-27T01:25:15.854Z,1022.42
2016-12-27T01:25:56.436Z,1022.4
2016-12-27T01:26:37.020Z,1022.4
2016-12-27T01:27:17.609Z,1022.4
2016-12-27T01:27:58.208Z,1022.4
2016-12-27T01:28:38.811Z,1022.44
2016-12-27T01:29:19.390Z,1022.43
2016-12-27T01:29:59.968Z,1022.47
2016-12-27T01:30:40.550Z,1022.46
2016-12-27T01:31:21.148Z,1022.45
2016-12-27T01:32:01.735Z,1022.48
2016-12-27T01:32:42.319Z,1022.48
2016-12-27T01:33:22.903Z,1022.47
2016-12-27T01:34:03.478Z,1022.47
2016-12-27T01:34:44.081Z,1022.48
2016-12-27T01:35:24.660Z,1022.47
2016-12-27T01:36:05.234Z,1022.47
2016-12-27T01:36:45.838Z,1022.49
2016-12-27T01:37:26.414Z,1022.49
2016-12-27T01:38:07.034Z,1022.52
2016-12-27T01:38:47.621Z,1022.53
2016-12-27T01:39:28.206Z,1022.54
2016-12-27T01:40:08.787Z,1022.57
2016-12-27T01:40:49.373Z,1022.57
2016-12-27T01:41:29.962Z,1022.58
2016-12-27T01:42:10.550Z,1022.57
2016-12-27T01:42:51.125Z,1022.56
2016-12-27T01:43:31.751Z,1022.55
2016-12-27T01:44:12.336Z,1022.57
2016-12-27T01:44:52.924Z,1022.57
2016-12-27T01:45:33.509Z,1022.58
2016-12-27T01:46:14.108Z,1022.6
2016-12-27T01:46:54.691Z,1022.61
2016-12-27T01:47:35.279Z,1022.6
2016-12-27T01:48:15.859Z,1022.62
2016-12-27T01:48:56.453Z,1022.62
2016-12-27T01:49:37.051Z,1022.61
2016-12-27T01:50:17.653Z,1022.65
2016-12-27T01:50:58.250Z,1022.63
2016-12-27T01:51:38.841Z,1022.6
2016-12-27T01:52:19.428Z,1022.61
2016-12-27T01:53:00.026Z,1022.65
2016-12-27T01:53:40.612Z,1022.62
2016-12-27T01:54:21.220Z,1022.6
2016-12-27T01:55:01.796Z,1022.59
2016-12-27T01:55:42.392Z,1022.59
2016-12-27T01:56:22.983Z,1022.6
2016-12-27T01:57:03.580Z,1022.57
2016-12-27T01:57:44.186Z,1022.58
2016-12-27T01:58:24.771Z,1022.61
2016-12-27T01:59:05.358Z,1022.59
2016-12-27T01:59:45.931Z,1022.65
2016-12-27T02:00:26.530Z,1022.64
2016-12-27T02:01:07.110Z,1022.63
2016-12-27T02:01:47.697Z,1022.61
2016-12-27T02:02:28.290Z,1022.62
2016-12-27T02:03:08.878Z,1022.63
2016-12-27T02:03:49.461Z,1022.66
2016-12-27T02:04:30.044Z,1022.66
2016-12-27T02:05:10.619Z,1022.66
2016-12-27T02:05:51.217Z,1022.63
2016-12-27T02:06:31.809Z,1022.63
2016-12-27T02:07:12.396Z,1022.63
2016-12-27T02:07:52.981Z,1022.63
2016-12-27T02:08:33.570Z,1022.65
2016-12-27T02:09:14.161Z,1022.67
2016-12-27T02:09:54.767Z,1022.68
2016-12-27T02:10:35.378Z,1022.67
2016-12-27T02:11:15.982Z,1022.64
2016-12-27T02:11:56.573Z,1022.62
2016-12-27T02:12:37.164Z,1022.62
2016-12-27T02:13:17.736Z,1022.6
2016-12-27T02:13:58.342Z,1022.63
2016-12-27T02:14:38.925Z,1022.61
2016-12-27T02:15:19.506Z,1022.63
2016-12-27T02:16:00.093Z,1022.63
2016-12-27T02:16:40.684Z,1022.62
2016-12-27T02:17:21.296Z,1022.65
2016-12-27T02:18:01.888Z,1022.64
2016-12-27T02:18:42.472Z,1022.64
2016-12-27T02:19:23.064Z,1022.64
2016-12-27T02:20:03.646Z,1022.6
2016-12-27T02:20:44.256Z,1022.64
2016-12-27T02:21:24.841Z,1022.62
2016-12-27T02:22:05.451Z,1022.64
2016-12-27T02:22:46.039Z,1022.64
2016-12-27T02:23:26.636Z,1022.66
2016-12-27T02:24:07.223Z,1022.65
2016-12-27T02:24:47.827Z,1022.66
2016-12-27T02:25:28.409Z,1022.67
2016-12-27T02:26:08.983Z,1022.63
2016-12-27T02:26:49.563Z,1022.69
2016-12-27T02:27:30.157Z,1022.64
2016-12-27T02:28:10.738Z,1022.64
2016-12-27T02:28:51.327Z,1022.69
2016-12-27T02:29:31.916Z,1022.67
2016-12-27T02:30:12.493Z,1022.66
2016-12-27T02:30:53.081Z,1022.71
2016-12-27T02:31:33.671Z,1022.7
2016-12-27T02:32:14.258Z,1022.68
2016-12-27T02:32:54.844Z,1022.75
2016-12-27T02:33:35.425Z,1022.74
2016-12-27T02:34:16.021Z,1022.76
2016-12-27T02:34:56.598Z,1022.73
2016-12-27T02:35:37.180Z,1022.68
2016-12-27T02:36:17.776Z,1022.7
2016-12-27T02:36:58.391Z,1022.75
2016-12-27T02:37:38.989Z,1022.69
2016-12-27T02:38:19.586Z,1022.76
2016-12-27T02:39:00.177Z,1022.77
2016-12-27T02:39:40.799Z,1022.76
2016-12-27T02:40:21.390Z,1022.71
2016-12-27T02:41:01.996Z,1022.78
2016-12-27T02:41:42.599Z,1022.78
2016-12-27T02:42:23.183Z,1022.74
2016-12-27T02:43:03.772Z,1022.75
2016-12-27T02:43:44.369Z,1022.74
2016-12-27T02:44:24.963Z,1022.77
2016-12-27T02:45:05.559Z,1022.75
2016-12-27T02:45:46.156Z,1022.78
2016-12-27T02:46:26.741Z,1022.76
2016-12-27T02:47:07.318Z,1022.75
2016-12-27T02:47:47.910Z,1022.74
2016-12-27T02:48:28.503Z,1022.78
2016-12-27T02:49:09.097Z,1022.7
2016-12-27T02:49:49.684Z,1022.77
2016-12-27T02:50:30.273Z,1022.79
2016-12-27T02:51:10.850Z,1022.78
2016-12-27T02:51:51.437Z,1022.79
2016-12-27T02:52:32.051Z,1022.76
2016-12-27T02:53:12.645Z,1022.76
2016-12-27T02:53:53.253Z,1022.77
2016-12-27T02:54:33.844Z,1022.76
2016-12-27T02:55:14.435Z,1022.75
2016-12-27T02:55:55.017Z,1022.75
2016-12-27T02:56:35.606Z,1022.78
2016-12-27T02:57:16.218Z,1022.77
2016-12-27T02:57:56.798Z,1022.74
2016-12-27T02:58:37.387Z,1022.76
2016-12-27T02:59:18.007Z,1022.73
2016-12-27T02:59:58.590Z,1022.74
2016-12-27T03:00:39.177Z,1022.72
2016-12-27T03:01:19.763Z,1022.74
2016-12-27T03:02:00.349Z,1022.72
2016-12-27T03:02:40.937Z,1022.65
2016-12-27T03:03:21.536Z,1022.66
2016-12-27T03:04:02.128Z,1022.71
2016-12-27T03:04:42.724Z,1022.64
2016-12-27T03:05:23.304Z,1022.69
2016-12-27T03:06:03.895Z,1022.63
2016-12-27T03:06:44.482Z,1022.68
2016-12-27T03:07:25.084Z,1022.67
2016-12-27T03:08:05.666Z,1022.64
2016-12-27T03:08:46.254Z,1022.66
2016-12-27T03:09:26.841Z,1022.66
2016-12-27T03:10:07.432Z,1022.67
2016-12-27T03:10:48.026Z,1022.62
2016-12-27T03:11:28.604Z,1022.68
2016-12-27T03:12:09.198Z,1022.65
2016-12-27T03:12:49.795Z,1022.66
2016-12-27T03:13:30.384Z,1022.66
2016-12-27T03:14:10.977Z,1022.68
2016-12-27T03:14:51.555Z,1022.65
2016-12-27T03:15:32.135Z,1022.67
2016-12-27T03:16:12.734Z,1022.61
2016-12-27T03:16:53.334Z,1022.64
2016-12-27T03:17:33.922Z,1022.65
2016-12-27T03:18:14.507Z,1022.6
2016-12-27T03:18:55.109Z,1022.61
2016-12-27T03:19:35.698Z,1022.66
2016-12-27T03:20:16.296Z,1022.6
2016-12-27T03:20:56.878Z,1022.6
2016-12-27T03:21:37.466Z,1022.6
2016-12-27T03:22:18.069Z,1022.6
2016-12-27T03:22:58.656Z,1022.56
2016-12-27T03:23:39.234Z,1022.6
2016-12-27T03:24:19.813Z,1022.62
2016-12-27T03:25:00.421Z,1022.57
2016-12-27T03:25:41.012Z,1022.55
2016-12-27T03:26:21.602Z,1022.55
2016-12-27T03:27:02.181Z,1022.56
2016-12-27T03:27:42.776Z,1022.55
2016-12-27T03:28:23.373Z,1022.53
2016-12-27T03:29:03.977Z,1022.54
2016-12-27T03:29:44.561Z,1022.54
2016-12-27T03:30:25.144Z,1022.58
2016-12-27T03:31:05.727Z,1022.56
2016-12-27T03:31:46.318Z,1022.58
2016-12-27T03:32:26.897Z,1022.6
2016-12-27T03:33:07.483Z,1022.61
2016-12-27T03:33:48.086Z,1022.61
2016-12-27T03:34:28.676Z,1022.61
2016-12-27T03:35:09.256Z,1022.56
2016-12-27T03:35:49.855Z,1022.55
2016-12-27T03:36:30.448Z,1022.57
2016-12-27T03:37:11.048Z,1022.61
2016-12-27T03:37:51.665Z,1022.6
2016-12-27T03:38:32.250Z,1022.64
2016-12-27T03:39:12.832Z,1022.62
2016-12-27T03:39:53.429Z,1022.64
2016-12-27T03:40:34.001Z,1022.61
2016-12-27T03:41:14.610Z,1022.61
2016-12-27T03:41:55.208Z,1022.61
2016-12-27T03:42:35.792Z,1022.59
2016-12-27T03:43:16.377Z,1022.6
2016-12-27T03:43:56.964Z,1022.58
2016-12-27T03:44:37.563Z,1022.64
2016-12-27T03:45:18.156Z,1022.55
2016-12-27T03:45:58.731Z,1022.58
2016-12-27T03:46:39.317Z,1022.6
2016-12-27T03:47:19.900Z,1022.58
2016-12-27T03:48:00.475Z,1022.58
2016-12-27T03:48:41.088Z,1022.57
2016-12-27T03:49:21.683Z,1022.54
2016-12-27T03:50:02.287Z,1022.59
2016-12-27T03:50:42.873Z,1022.56
2016-12-27T03:51:23.465Z,1022.57
2016-12-27T03:52:04.054Z,1022.57
2016-12-27T03:52:44.642Z,1022.55
2016-12-27T03:53:25.216Z,1022.61
2016-12-27T03:54:05.818Z,1022.58
2016-12-27T03:54:46.399Z,1022.59
2016-12-27T03:55:27.000Z,1022.57
2016-12-27T03:56:07.593Z,1022.58
2016-12-27T03:56:48.179Z,1022.55
2016-12-27T03:57:28.759Z,1022.55
2016-12-27T03:58:09.347Z,1022.55
2016-12-27T03:58:49.934Z,1022.52
2016-12-27T03:59:30.530Z,1022.52
2016-12-27T04:00:11.109Z,1022.54
2016-12-27T04:00:51.702Z,1022.49
2016-12-27T04:01:32.316Z,1022.47
2016-12-27T04:02:12.899Z,1022.54
2016-12-27T04:02:53.501Z,1022.53
2016-12-27T04:03:34.093Z,1022.54
2016-12-27T04:04:14.673Z,1022.49
2016-12-27T04:04:55.262Z,1022.52
2016-12-27T04:05:35.851Z,1022.58
2016-12-27T04:06:16.432Z,1022.59
2016-12-27T04:06:57.015Z,1022.58
2016-12-27T04:07:37.601Z,1022.58
2016-12-27T04:08:18.185Z,1022.54
2016-12-27T04:08:58.776Z,1022.58
2016-12-27T04:09:39.380Z,1022.59
2016-12-27T04:10:19.963Z,1022.57
2016-12-27T04:11:00.550Z,1022.58
2016-12-27T04:11:41.143Z,1022.57
2016-12-27T04:12:21.721Z,1022.55
2016-12-27T04:13:02.315Z,1022.52
2016-12-27T04:13:42.898Z,1022.59
2016-12-27T04:14:23.478Z,1022.55
2016-12-27T04:15:04.055Z,1022.49
2016-12-27T04:15:44.661Z,1022.48
2016-12-27T04:16:25.929Z,1022.56
2016-12-27T04:17:06.509Z,1022.5
2016-12-27T04:17:47.099Z,1022.49
2016-12-27T04:18:27.681Z,1022.52
2016-12-27T04:19:08.298Z,1022.53
2016-12-27T04:19:48.887Z,1022.54
2016-12-27T04:20:29.480Z,1022.56
2016-12-27T04:21:10.087Z,1022.53
2016-12-27T04:21:50.666Z,1022.53
2016-12-27T04:22:31.251Z,1022.54
2016-12-27T04:23:11.842Z,1022.55
2016-12-27T04:23:52.441Z,1022.59
2016-12-27T04:24:33.024Z,1022.57
2016-12-27T04:25:13.611Z,1022.55
2016-12-27T04:25:54.195Z,1022.59
2016-12-27T04:26:34.776Z,1022.55
2016-12-27T04:27:15.362Z,1022.57
2016-12-27T04:27:55.955Z,1022.52
2016-12-27T04:28:36.540Z,1022.56
2016-12-27T04:29:17.120Z,1022.51
2016-12-27T04:29:57.707Z,1022.56
2016-12-27T04:30:38.301Z,1022.57
2016-12-27T04:31:18.886Z,1022.59
2016-12-27T04:31:59.474Z,1022.59
2016-12-27T04:32:40.079Z,1022.59
2016-12-27T04:33:20.665Z,1022.61
2016-12-27T04:34:01.247Z,1022.61
2016-12-27T04:34:41.834Z,1022.63
2016-12-27T04:35:22.416Z,1022.62
2016-12-27T04:36:03.018Z,1022.64
2016-12-27T04:36:43.604Z,1022.67
2016-12-27T04:37:24.198Z,1022.68
2016-12-27T04:38:04.792Z,1022.64
2016-12-27T04:38:45.382Z,1022.64
2016-12-27T04:39:26.000Z,1022.62
2016-12-27T04:40:06.593Z,1022.62
2016-12-27T04:40:47.194Z,1022.6
2016-12-27T04:41:27.790Z,1022.61
2016-12-27T04:42:08.381Z,1022.62
2016-12-27T04:42:48.963Z,1022.61
2016-12-27T04:43:29.548Z,1022.57
2016-12-27T04:44:10.142Z,1022.61
2016-12-27T04:44:50.743Z,1022.59
2016-12-27T04:45:31.344Z,1022.58
2016-12-27T04:46:11.932Z,1022.55
2016-12-27T04:46:52.521Z,1022.58
2016-12-27T04:47:33.105Z,1022.57
2016-12-27T04:48:13.698Z,1022.56
2016-12-27T04:48:54.279Z,1022.55
2016-12-27T04:49:34.868Z,1022.56
2016-12-27T04:50:15.453Z,1022.58
2016-12-27T04:50:56.032Z,1022.57
2016-12-27T04:51:36.620Z,1022.58
2016-12-27T04:52:17.221Z,1022.6
2016-12-27T04:52:57.815Z,1022.64
2016-12-27T04:53:38.410Z,1022.61
2016-12-27T04:54:19.007Z,1022.57
2016-12-27T04:54:59.612Z,1022.64
2016-12-27T04:55:40.196Z,1022.65
2016-12-27T04:56:20.785Z,1022.65
2016-12-27T04:57:01.371Z,1022.62
2016-12-27T04:57:41.974Z,1022.65
2016-12-27T04:58:22.572Z,1022.64
2016-12-27T04:59:03.154Z,1022.61
2016-12-27T04:59:43.747Z,1022.62
2016-12-27T05:00:24.331Z,1022.59
2016-12-27T05:01:04.933Z,1022.63
2016-12-27T05:01:45.538Z,1022.63
2016-12-27T05:02:26.126Z,1022.63
2016-12-27T05:03:06.705Z,1022.63
2016-12-27T05:03:47.295Z,1022.64
2016-12-27T05:04:27.904Z,1022.62
2016-12-27T05:05:08.503Z,1022.6
2016-12-27T05:05:49.106Z,1022.64
2016-12-27T05:06:29.682Z,1022.61
2016-12-27T05:07:10.286Z,1022.61
2016-12-27T05:07:50.883Z,1022.63
2016-12-27T05:08:31.498Z,1022.6
2016-12-27T05:09:12.097Z,1022.65
2016-12-27T05:09:52.693Z,1022.62
2016-12-27T05:10:33.282Z,1022.62
2016-12-27T05:11:13.874Z,1022.65
2016-12-27T05:11:54.465Z,1022.66
2016-12-27T05:12:35.046Z,1022.67
2016-12-27T05:13:15.639Z,1022.66
2016-12-27T05:13:56.217Z,1022.66
2016-12-27T05:14:36.801Z,1022.69
2016-12-27T05:15:17.393Z,1022.7
2016-12-27T05:15:57.973Z,1022.67
2016-12-27T05:16:38.560Z,1022.7
2016-12-27T05:17:19.174Z,1022.67
2016-12-27T05:17:59.769Z,1022.66
2016-12-27T05:18:40.380Z,1022.66
2016-12-27T05:19:20.972Z,1022.66
2016-12-27T05:20:01.564Z,1022.66
2016-12-27T05:20:42.168Z,1022.66
2016-12-27T05:21:22.781Z,1022.63
2016-12-27T05:22:03.376Z,1022.64
2016-12-27T05:22:43.959Z,1022.65
2016-12-27T05:23:24.542Z,1022.69
2016-12-27T05:24:05.126Z,1022.69
2016-12-27T05:24:45.713Z,1022.67
2016-12-27T05:25:26.285Z,1022.68
2016-12-27T05:26:06.878Z,1022.68
2016-12-27T05:26:47.488Z,1022.74
2016-12-27T05:27:28.096Z,1022.72
2016-12-27T05:28:08.694Z,1022.72
2016-12-27T05:28:49.288Z,1022.75
2016-12-27T05:29:29.866Z,1022.76
2016-12-27T05:30:10.450Z,1022.73
2016-12-27T05:30:51.032Z,1022.74
2016-12-27T05:31:31.623Z,1022.75
2016-12-27T05:32:12.216Z,1022.75
2016-12-27T05:32:52.807Z,1022.73
2016-12-27T05:33:33.405Z,1022.73
2016-12-27T05:34:14.016Z,1022.76
2016-12-27T05:34:54.603Z,1022.73
2016-12-27T05:35:35.193Z,1022.73
2016-12-27T05:36:15.812Z,1022.74
2016-12-27T05:36:56.406Z,1022.77
2016-12-27T05:37:37.013Z,1022.75
2016-12-27T05:38:17.614Z,1022.74
2016-12-27T05:38:58.220Z,1022.74
2016-12-27T05:39:38.814Z,1022.75
2016-12-27T05:40:19.424Z,1022.73
2016-12-27T05:41:00.016Z,1022.71
2016-12-27T05:41:40.625Z,1022.74
2016-12-27T05:42:21.213Z,1022.72
2016-12-27T05:43:01.824Z,1022.72
2016-12-27T05:43:42.423Z,1022.74
2016-12-27T05:44:23.023Z,1022.76
2016-12-27T05:45:03.595Z,1022.76
2016-12-27T05:45:44.184Z,1022.78
2016-12-27T05:46:24.787Z,1022.77
2016-12-27T05:47:05.384Z,1022.78
2016-12-27T05:47:45.963Z,1022.82
2016-12-27T05:48:26.548Z,1022.81
2016-12-27T05:49:07.138Z,1022.83
2016-12-27T05:49:47.748Z,1022.88
2016-12-27T05:50:28.335Z,1022.89
2016-12-27T05:51:08.945Z,1022.87
2016-12-27T05:51:49.542Z,1022.88
2016-12-27T05:52:30.127Z,1022.9
2016-12-27T05:53:10.713Z,1022.9
2016-12-27T05:53:51.301Z,1022.87
2016-12-27T05:54:31.887Z,1022.91
2016-12-27T05:55:12.466Z,1022.89
2016-12-27T05:55:53.076Z,1022.88
2016-12-27T05:56:33.668Z,1022.86
2016-12-27T05:57:14.266Z,1022.9
2016-12-27T05:57:54.854Z,1022.86
2016-12-27T05:58:35.447Z,1022.89
2016-12-27T05:59:16.030Z,1022.9
2016-12-27T05:59:56.618Z,1022.84
2016-12-27T06:00:37.211Z,1022.84
2016-12-27T06:01:17.795Z,1022.84
2016-12-27T06:01:58.386Z,1022.85
2016-12-27T06:02:38.979Z,1022.83
2016-12-27T06:03:19.570Z,1022.85
2016-12-27T06:04:00.163Z,1022.87
2016-12-27T06:04:40.759Z,1022.84
2016-12-27T06:05:21.339Z,1022.84
2016-12-27T06:06:01.927Z,1022.82
2016-12-27T06:06:42.512Z,1022.85
2016-12-27T06:07:23.101Z,1022.85
2016-12-27T06:08:03.684Z,1022.84
2016-12-27T06:08:44.274Z,1022.89
2016-12-27T06:09:24.877Z,1022.88
2016-12-27T06:10:05.473Z,1022.9
2016-12-27T06:10:46.049Z,1022.9
2016-12-27T06:11:26.629Z,1022.87
2016-12-27T06:12:07.212Z,1022.91
2016-12-27T06:12:47.795Z,1022.92
2016-12-27T06:13:28.381Z,1022.9
2016-12-27T06:14:08.963Z,1022.91
2016-12-27T06:14:49.561Z,1022.89
2016-12-27T06:15:30.152Z,1022.93
2016-12-27T06:16:10.732Z,1022.92
2016-12-27T06:16:51.331Z,1022.92
2016-12-27T06:17:31.917Z,1022.91
2016-12-27T06:18:12.500Z,1022.91
2016-12-27T06:18:53.109Z,1022.91
2016-12-27T06:19:33.701Z,1022.93
2016-12-27T06:20:14.304Z,1022.93
2016-12-27T06:20:54.894Z,1022.96
2016-12-27T06:21:35.481Z,1022.92
2016-12-27T06:22:16.070Z,1022.91
2016-12-27T06:22:56.664Z,1022.92
2016-12-27T06:23:37.254Z,1022.97
2016-12-27T06:24:17.834Z,1022.93
2016-12-27T06:24:58.416Z,1022.96
2016-12-27T06:25:39.029Z,1022.95
2016-12-27T06:26:19.615Z,1023
2016-12-27T06:27:00.196Z,1023
2016-12-27T06:27:40.791Z,1022.98
2016-12-27T06:28:21.375Z,1023.02
2016-12-27T06:29:01.958Z,1023.01
2016-12-27T06:29:42.542Z,1023.02
2016-12-27T06:30:23.139Z,1023.04
2016-12-27T06:31:03.735Z,1023.04
2016-12-27T06:31:44.333Z,1023.05
2016-12-27T06:32:24.923Z,1023.02
2016-12-27T06:33:05.509Z,1023.02
2016-12-27T06:33:46.089Z,1023.04
2016-12-27T06:34:26.672Z,1023.03
2016-12-27T06:35:07.259Z,1023.02
2016-12-27T06:35:47.844Z,1023.04
2016-12-27T06:36:28.431Z,1023.05
2016-12-27T06:37:09.032Z,1023.06
2016-12-27T06:37:49.611Z,1023.06
2016-12-27T06:38:30.213Z,1023.05
2016-12-27T06:39:10.792Z,1023.05
2016-12-27T06:39:51.382Z,1023.03
2016-12-27T06:40:31.971Z,1023.05
2016-12-27T06:41:12.547Z,1023.07
2016-12-27T06:41:53.146Z,1023.05
2016-12-27T06:42:33.740Z,1023.09
2016-12-27T06:43:14.316Z,1023.11
2016-12-27T06:43:54.901Z,1023.07
2016-12-27T06:44:35.486Z,1023.07
2016-12-27T06:45:16.067Z,1023.12
2016-12-27T06:45:56.667Z,1023.08
2016-12-27T06:46:37.280Z,1023.1
2016-12-27T06:47:17.871Z,1023.08
2016-12-27T06:47:58.456Z,1023.08
2016-12-27T06:48:39.064Z,1023.09
2016-12-27T06:49:19.649Z,1023.1
2016-12-27T06:50:00.244Z,1023.12
2016-12-27T06:50:40.825Z,1023.13
2016-12-27T06:51:21.403Z,1023.15
2016-12-27T06:52:01.991Z,1023.12
2016-12-27T06:52:42.575Z,1023.12
2016-12-27T06:53:23.167Z,1023.14
2016-12-27T06:54:03.764Z,1023.19
2016-12-27T06:54:44.350Z,1023.19
2016-12-27T06:55:24.947Z,1023.15
2016-12-27T06:56:05.525Z,1023.15
2016-12-27T06:56:46.107Z,1023.16
2016-12-27T06:57:26.689Z,1023.15
2016-12-27T06:58:07.285Z,1023.13
2016-12-27T06:58:47.863Z,1023.1
2016-12-27T06:59:28.446Z,1023.14
2016-12-27T07:00:09.024Z,1023.14
2016-12-27T07:00:49.631Z,1023.14
2016-12-27T07:01:30.222Z,1023.14
2016-12-27T07:02:10.811Z,1023.13
2016-12-27T07:02:51.393Z,1023.13
2016-12-27T07:03:31.989Z,1023.13
2016-12-27T07:04:12.576Z,1023.16
2016-12-27T07:04:53.156Z,1023.2
2016-12-27T07:05:33.736Z,1023.25
2016-12-27T07:06:14.327Z,1023.24
2016-12-27T07:06:54.940Z,1023.23
2016-12-27T07:07:35.519Z,1023.23
2016-12-27T07:08:16.112Z,1023.27
2016-12-27T07:08:56.692Z,1023.27
2016-12-27T07:09:37.273Z,1023.22
2016-12-27T07:10:17.866Z,1023.3
2016-12-27T07:10:58.465Z,1023.28
2016-12-27T07:11:39.041Z,1023.31
2016-12-27T07:12:19.631Z,1023.29
2016-12-27T07:13:00.218Z,1023.29
2016-12-27T07:13:40.793Z,1023.29
2016-12-27T07:14:21.372Z,1023.3
2016-12-27T07:15:01.953Z,1023.32
2016-12-27T07:15:42.576Z,1023.34
2016-12-27T07:16:23.156Z,1023.33
2016-12-27T07:17:03.766Z,1023.35
2016-12-27T07:17:44.353Z,1023.32
2016-12-27T07:18:24.949Z,1023.3
2016-12-27T07:19:05.527Z,1023.33
2016-12-27T07:19:46.117Z,1023.29
2016-12-27T07:20:26.696Z,1023.29
2016-12-27T07:21:07.276Z,1023.35
2016-12-27T07:21:47.881Z,1023.35
2016-12-27T07:22:28.475Z,1023.32
2016-12-27T07:23:09.068Z,1023.32
2016-12-27T07:23:49.673Z,1023.29
2016-12-27T07:24:30.266Z,1023.34
2016-12-27T07:25:10.882Z,1023.31
2016-12-27T07:25:51.479Z,1023.32
2016-12-27T07:26:32.081Z,1023.32
2016-12-27T07:27:12.673Z,1023.37
2016-12-27T07:27:53.269Z,1023.36
2016-12-27T07:28:33.873Z,1023.36
2016-12-27T07:29:14.461Z,1023.33
2016-12-27T07:29:55.052Z,1023.37
2016-12-27T07:30:35.672Z,1023.36
2016-12-27T07:31:16.258Z,1023.39
2016-12-27T07:31:56.843Z,1023.39
2016-12-27T07:32:37.454Z,1023.37
2016-12-27T07:33:18.070Z,1023.36
2016-12-27T07:33:58.668Z,1023.38
2016-12-27T07:34:39.255Z,1023.36
2016-12-27T07:35:19.854Z,1023.4
2016-12-27T07:36:00.443Z,1023.37
2016-12-27T07:36:41.054Z,1023.38
2016-12-27T07:37:21.673Z,1023.37
2016-12-27T07:38:02.277Z,1023.39
2016-12-27T07:38:42.894Z,1023.37
2016-12-27T07:39:23.520Z,1023.36
2016-12-27T07:40:04.139Z,1023.37
2016-12-27T07:40:44.724Z,1023.35
2016-12-27T07:41:25.344Z,1023.4
2016-12-27T07:42:05.931Z,1023.38
2016-12-27T07:42:46.537Z,1023.38
2016-12-27T07:43:27.145Z,1023.38
2016-12-27T07:44:07.738Z,1023.39
2016-12-27T07:44:48.323Z,1023.41
2016-12-27T07:45:28.918Z,1023.41
2016-12-27T07:46:09.523Z,1023.46
2016-12-27T07:46:50.160Z,1023.49
2016-12-27T07:47:30.763Z,1023.45
2016-12-27T07:48:11.351Z,1023.46
2016-12-27T07:48:51.938Z,1023.46
2016-12-27T07:49:32.536Z,1023.44
2016-12-27T07:50:13.124Z,1023.43
2016-12-27T07:50:53.745Z,1023.46
2016-12-27T07:51:34.332Z,1023.45
2016-12-27T07:52:14.930Z,1023.44
2016-12-27T07:52:55.526Z,1023.47
2016-12-27T07:53:36.126Z,1023.49
2016-12-27T07:54:16.718Z,1023.47
2016-12-27T07:54:57.319Z,1023.48
2016-12-27T07:55:37.924Z,1023.51
2016-12-27T07:56:18.520Z,1023.51
2016-12-27T07:56:59.127Z,1023.51
2016-12-27T07:57:39.736Z,1023.54
2016-12-27T07:58:20.336Z,1023.54
2016-12-27T07:59:00.931Z,1023.55
2016-12-27T07:59:41.514Z,1023.57
2016-12-27T08:00:22.096Z,1023.58
2016-12-27T08:01:02.694Z,1023.57
2016-12-27T08:01:43.291Z,1023.57
2016-12-27T08:02:23.904Z,1023.57
2016-12-27T08:03:04.507Z,1023.58
2016-12-27T08:03:45.120Z,1023.59
2016-12-27T08:04:25.712Z,1023.59
2016-12-27T08:05:06.287Z,1023.62
2016-12-27T08:05:46.909Z,1023.61
2016-12-27T08:06:27.491Z,1023.66
2016-12-27T08:07:08.090Z,1023.65
2016-12-27T08:07:48.686Z,1023.64
2016-12-27T08:08:29.319Z,1023.67
2016-12-27T08:09:09.939Z,1023.68
2016-12-27T08:09:50.531Z,1023.69
2016-12-27T08:10:31.130Z,1023.69
2016-12-27T08:11:11.729Z,1023.67
2016-12-27T08:11:52.324Z,1023.73